sensor_id;sensor_type;location;lat;lon;timestamp;P1;durP1;ratioP1;P2;durP2;ratioP2
23080;SDS011;72373;50.562;8.498;2023-11-22T00:00:41;5.75;;;4.10;;
23080;SDS011;72373;50.562;8.498;2023-11-22T00:03:07;5.95;;;4.40;;
23080;SDS011;72373;50.562;8.498;2023-11-22T00:05:32;6.65;;;3.60;;
23080;SDS011;72373;50.562;8.498;2023-11-22T00:07:58;4.63;;;3.40;;
23080;SDS011;72373;50.562;8.498;2023-11-22T00:10:23;6.35;;;3.60;;
23080;SDS011;72373;50.562;8.498;2023-11-22T00:12:49;6.13;;;3.90;;
23080;SDS011;72373;50.562;8.498;2023-11-22T00:15:15;4.47;;;3.38;;
23080;SDS011;72373;50.562;8.498;2023-11-22T00:17:43;5.30;;;3.85;;
23080;SDS011;72373;50.562;8.498;2023-11-22T00:20:10;6.50;;;3.72;;
23080;SDS011;72373;50.562;8.498;2023-11-22T00:22:36;6.80;;;3.67;;
23080;SDS011;72373;50.562;8.498;2023-11-22T00:25:02;5.18;;;3.30;;
23080;SDS011;72373;50.562;8.498;2023-11-22T00:27:28;5.50;;;3.42;;
23080;SDS011;72373;50.562;8.498;2023-11-22T00:29:57;5.40;;;3.28;;
23080;SDS011;72373;50.562;8.498;2023-11-22T00:32:23;5.97;;;3.78;;
23080;SDS011;72373;50.562;8.498;2023-11-22T00:34:50;5.65;;;3.53;;
23080;SDS011;72373;50.562;8.498;2023-11-22T00:37:16;6.47;;;3.88;;
23080;SDS011;72373;50.562;8.498;2023-11-22T00:39:42;6.47;;;3.92;;
23080;SDS011;72373;50.562;8.498;2023-11-22T00:42:07;6.43;;;4.07;;
23080;SDS011;72373;50.562;8.498;2023-11-22T00:44:33;6.25;;;3.63;;
23080;SDS011;72373;50.562;8.498;2023-11-22T00:47:00;5.60;;;3.55;;
23080;SDS011;72373;50.562;8.498;2023-11-22T00:49:25;7.22;;;4.05;;
23080;SDS011;72373;50.562;8.498;2023-11-22T00:51:51;5.53;;;3.63;;
23080;SDS011;72373;50.562;8.498;2023-11-22T00:54:17;8.70;;;3.60;;
23080;SDS011;72373;50.562;8.498;2023-11-22T00:56:45;5.55;;;3.80;;
23080;SDS011;72373;50.562;8.498;2023-11-22T00:59:11;6.07;;;3.58;;
23080;SDS011;72373;50.562;8.498;2023-11-22T01:01:36;5.72;;;3.65;;
23080;SDS011;72373;50.562;8.498;2023-11-22T01:04:02;4.80;;;3.60;;
23080;SDS011;72373;50.562;8.498;2023-11-22T01:06:28;5.88;;;3.95;;
23080;SDS011;72373;50.562;8.498;2023-11-22T01:08:54;6.68;;;3.90;;
23080;SDS011;72373;50.562;8.498;2023-11-22T01:11:19;7.53;;;4.70;;
23080;SDS011;72373;50.562;8.498;2023-11-22T01:13:45;5.95;;;3.55;;
23080;SDS011;72373;50.562;8.498;2023-11-22T01:16:11;5.50;;;3.78;;
23080;SDS011;72373;50.562;8.498;2023-11-22T01:18:38;5.88;;;3.72;;
23080;SDS011;72373;50.562;8.498;2023-11-22T01:21:04;6.88;;;4.00;;
23080;SDS011;72373;50.562;8.498;2023-11-22T01:23:30;4.85;;;3.40;;
23080;SDS011;72373;50.562;8.498;2023-11-22T01:25:59;4.20;;;3.30;;
23080;SDS011;72373;50.562;8.498;2023-11-22T01:28:25;6.93;;;3.65;;
23080;SDS011;72373;50.562;8.498;2023-11-22T01:30:52;3.63;;;2.90;;
23080;SDS011;72373;50.562;8.498;2023-11-22T01:33:18;4.93;;;2.90;;
23080;SDS011;72373;50.562;8.498;2023-11-22T01:35:44;5.60;;;3.30;;
23080;SDS011;72373;50.562;8.498;2023-11-22T01:38:09;5.40;;;3.03;;
23080;SDS011;72373;50.562;8.498;2023-11-22T01:40:35;4.97;;;3.20;;
23080;SDS011;72373;50.562;8.498;2023-11-22T01:43:09;4.40;;;2.95;;
23080;SDS011;72373;50.562;8.498;2023-11-22T01:45:38;5.07;;;3.80;;
23080;SDS011;72373;50.562;8.498;2023-11-22T01:48:04;6.70;;;3.33;;
23080;SDS011;72373;50.562;8.498;2023-11-22T01:50:30;5.32;;;3.28;;
23080;SDS011;72373;50.562;8.498;2023-11-22T01:52:55;4.57;;;3.17;;
23080;SDS011;72373;50.562;8.498;2023-11-22T01:55:21;3.92;;;3.17;;
23080;SDS011;72373;50.562;8.498;2023-11-22T01:57:46;4.13;;;2.97;;
23080;SDS011;72373;50.562;8.498;2023-11-22T02:00:12;3.33;;;2.50;;
23080;SDS011;72373;50.562;8.498;2023-11-22T02:02:40;4.53;;;2.70;;
23080;SDS011;72373;50.562;8.498;2023-11-22T02:05:07;4.82;;;2.90;;
23080;SDS011;72373;50.562;8.498;2023-11-22T02:07:33;6.15;;;2.80;;
23080;SDS011;72373;50.562;8.498;2023-11-22T02:09:58;5.88;;;3.38;;
23080;SDS011;72373;50.562;8.498;2023-11-22T02:12:24;5.13;;;3.03;;
23080;SDS011;72373;50.562;8.498;2023-11-22T02:14:49;4.82;;;2.95;;
23080;SDS011;72373;50.562;8.498;2023-11-22T02:17:15;5.15;;;2.83;;
23080;SDS011;72373;50.562;8.498;2023-11-22T02:19:42;6.95;;;3.05;;
23080;SDS011;72373;50.562;8.498;2023-11-22T02:22:08;3.88;;;2.90;;
23080;SDS011;72373;50.562;8.498;2023-11-22T02:24:33;6.43;;;2.80;;
23080;SDS011;72373;50.562;8.498;2023-11-22T02:26:59;3.95;;;2.70;;
23080;SDS011;72373;50.562;8.498;2023-11-22T02:29:25;3.60;;;2.90;;
23080;SDS011;72373;50.562;8.498;2023-11-22T02:31:50;4.00;;;2.75;;
23080;SDS011;72373;50.562;8.498;2023-11-22T02:34:16;5.25;;;3.05;;
23080;SDS011;72373;50.562;8.498;2023-11-22T02:36:42;5.38;;;2.83;;
23080;SDS011;72373;50.562;8.498;2023-11-22T02:39:10;4.68;;;2.88;;
23080;SDS011;72373;50.562;8.498;2023-11-22T02:41:38;6.20;;;2.88;;
23080;SDS011;72373;50.562;8.498;2023-11-22T02:44:03;3.95;;;2.50;;
23080;SDS011;72373;50.562;8.498;2023-11-22T02:46:31;4.70;;;3.03;;
23080;SDS011;72373;50.562;8.498;2023-11-22T02:48:57;4.45;;;2.63;;
23080;SDS011;72373;50.562;8.498;2023-11-22T02:51:24;3.97;;;2.78;;
23080;SDS011;72373;50.562;8.498;2023-11-22T02:53:50;6.07;;;3.40;;
23080;SDS011;72373;50.562;8.498;2023-11-22T02:56:16;5.45;;;3.00;;
23080;SDS011;72373;50.562;8.498;2023-11-22T02:58:41;8.98;;;2.78;;
23080;SDS011;72373;50.562;8.498;2023-11-22T03:01:07;5.32;;;3.00;;
23080;SDS011;72373;50.562;8.498;2023-11-22T03:03:33;4.45;;;2.90;;
23080;SDS011;72373;50.562;8.498;2023-11-22T03:05:59;4.32;;;2.90;;
23080;SDS011;72373;50.562;8.498;2023-11-22T03:08:25;6.93;;;3.33;;
23080;SDS011;72373;50.562;8.498;2023-11-22T03:10:51;5.53;;;3.22;;
23080;SDS011;72373;50.562;8.498;2023-11-22T03:13:17;5.57;;;2.90;;
23080;SDS011;72373;50.562;8.498;2023-11-22T03:15:43;5.90;;;3.40;;
23080;SDS011;72373;50.562;8.498;2023-11-22T03:18:09;7.07;;;3.75;;
23080;SDS011;72373;50.562;8.498;2023-11-22T03:20:36;6.50;;;3.55;;
23080;SDS011;72373;50.562;8.498;2023-11-22T03:23:02;5.20;;;3.45;;
23080;SDS011;72373;50.562;8.498;2023-11-22T03:25:28;5.32;;;2.90;;
23080;SDS011;72373;50.562;8.498;2023-11-22T03:27:54;7.45;;;3.28;;
23080;SDS011;72373;50.562;8.498;2023-11-22T03:30:19;5.50;;;3.38;;
23080;SDS011;72373;50.562;8.498;2023-11-22T03:32:45;5.00;;;2.70;;
23080;SDS011;72373;50.562;8.498;2023-11-22T03:35:11;4.78;;;3.50;;
23080;SDS011;72373;50.562;8.498;2023-11-22T03:37:37;5.63;;;3.42;;
23080;SDS011;72373;50.562;8.498;2023-11-22T03:40:02;7.97;;;3.55;;
23080;SDS011;72373;50.562;8.498;2023-11-22T03:42:28;6.18;;;3.40;;
23080;SDS011;72373;50.562;8.498;2023-11-22T03:44:54;7.97;;;3.10;;
23080;SDS011;72373;50.562;8.498;2023-11-22T03:47:20;5.53;;;3.30;;
23080;SDS011;72373;50.562;8.498;2023-11-22T03:49:45;5.07;;;3.30;;
23080;SDS011;72373;50.562;8.498;2023-11-22T03:52:11;6.07;;;3.30;;
23080;SDS011;72373;50.562;8.498;2023-11-22T03:54:37;6.35;;;3.40;;
23080;SDS011;72373;50.562;8.498;2023-11-22T03:57:03;5.63;;;3.30;;
23080;SDS011;72373;50.562;8.498;2023-11-22T03:59:29;6.07;;;3.15;;
23080;SDS011;72373;50.562;8.498;2023-11-22T04:01:55;4.97;;;3.40;;
23080;SDS011;72373;50.562;8.498;2023-11-22T04:04:20;5.40;;;3.13;;
23080;SDS011;72373;50.562;8.498;2023-11-22T04:06:46;5.00;;;3.10;;
23080;SDS011;72373;50.562;8.498;2023-11-22T04:09:12;6.32;;;3.28;;
23080;SDS011;72373;50.562;8.498;2023-11-22T04:11:38;5.10;;;3.05;;
23080;SDS011;72373;50.562;8.498;2023-11-22T04:14:04;5.38;;;3.25;;
23080;SDS011;72373;50.562;8.498;2023-11-22T04:16:30;5.50;;;3.25;;
23080;SDS011;72373;50.562;8.498;2023-11-22T04:18:55;5.30;;;3.10;;
23080;SDS011;72373;50.562;8.498;2023-11-22T04:21:21;6.78;;;3.35;;
23080;SDS011;72373;50.562;8.498;2023-11-22T04:23:46;7.13;;;3.13;;
23080;SDS011;72373;50.562;8.498;2023-11-22T04:26:13;5.63;;;3.15;;
23080;SDS011;72373;50.562;8.498;2023-11-22T04:28:39;4.75;;;2.95;;
23080;SDS011;72373;50.562;8.498;2023-11-22T04:31:04;4.88;;;2.95;;
23080;SDS011;72373;50.562;8.498;2023-11-22T04:33:30;7.40;;;2.90;;
23080;SDS011;72373;50.562;8.498;2023-11-22T04:35:56;4.85;;;2.60;;
23080;SDS011;72373;50.562;8.498;2023-11-22T04:38:21;4.53;;;2.80;;
23080;SDS011;72373;50.562;8.498;2023-11-22T04:40:47;3.10;;;2.50;;
23080;SDS011;72373;50.562;8.498;2023-11-22T04:43:13;6.35;;;2.78;;
23080;SDS011;72373;50.562;8.498;2023-11-22T04:45:38;6.15;;;2.78;;
23080;SDS011;72373;50.562;8.498;2023-11-22T04:48:05;5.88;;;2.97;;
23080;SDS011;72373;50.562;8.498;2023-11-22T04:50:36;4.97;;;2.90;;
23080;SDS011;72373;50.562;8.498;2023-11-22T04:53:05;4.25;;;2.83;;
23080;SDS011;72373;50.562;8.498;2023-11-22T04:55:34;4.15;;;2.88;;
23080;SDS011;72373;50.562;8.498;2023-11-22T04:58:06;4.45;;;2.72;;
23080;SDS011;72373;50.562;8.498;2023-11-22T05:00:31;3.55;;;2.40;;
23080;SDS011;72373;50.562;8.498;2023-11-22T05:02:57;3.40;;;2.20;;
23080;SDS011;72373;50.562;8.498;2023-11-22T05:05:23;4.88;;;2.40;;
23080;SDS011;72373;50.562;8.498;2023-11-22T05:07:48;3.30;;;2.20;;
23080;SDS011;72373;50.562;8.498;2023-11-22T05:10:14;4.22;;;2.50;;
23080;SDS011;72373;50.562;8.498;2023-11-22T05:12:40;4.80;;;3.00;;
23080;SDS011;72373;50.562;8.498;2023-11-22T05:15:06;3.95;;;2.53;;
23080;SDS011;72373;50.562;8.498;2023-11-22T05:17:33;4.38;;;2.58;;
23080;SDS011;72373;50.562;8.498;2023-11-22T05:19:58;3.95;;;2.33;;
23080;SDS011;72373;50.562;8.498;2023-11-22T05:22:24;5.07;;;2.70;;
23080;SDS011;72373;50.562;8.498;2023-11-22T05:24:50;6.03;;;2.40;;
23080;SDS011;72373;50.562;8.498;2023-11-22T05:27:15;6.18;;;2.78;;
23080;SDS011;72373;50.562;8.498;2023-11-22T05:29:42;5.97;;;2.67;;
23080;SDS011;72373;50.562;8.498;2023-11-22T05:32:08;4.00;;;2.28;;
23080;SDS011;72373;50.562;8.498;2023-11-22T05:34:34;4.68;;;2.78;;
23080;SDS011;72373;50.562;8.498;2023-11-22T05:36:59;5.95;;;2.50;;
23080;SDS011;72373;50.562;8.498;2023-11-22T05:39:25;3.30;;;2.13;;
23080;SDS011;72373;50.562;8.498;2023-11-22T05:41:51;4.05;;;2.40;;
23080;SDS011;72373;50.562;8.498;2023-11-22T05:44:18;3.97;;;2.58;;
23080;SDS011;72373;50.562;8.498;2023-11-22T05:46:43;4.07;;;2.10;;
23080;SDS011;72373;50.562;8.498;2023-11-22T05:49:09;3.78;;;2.33;;
23080;SDS011;72373;50.562;8.498;2023-11-22T05:51:35;3.72;;;2.38;;
23080;SDS011;72373;50.562;8.498;2023-11-22T05:54:06;4.07;;;2.28;;
23080;SDS011;72373;50.562;8.498;2023-11-22T05:56:31;5.28;;;2.63;;
23080;SDS011;72373;50.562;8.498;2023-11-22T05:58:57;4.45;;;2.45;;
23080;SDS011;72373;50.562;8.498;2023-11-22T06:01:24;4.65;;;3.15;;
23080;SDS011;72373;50.562;8.498;2023-11-22T06:03:51;5.05;;;2.60;;
23080;SDS011;72373;50.562;8.498;2023-11-22T06:06:17;5.22;;;3.08;;
23080;SDS011;72373;50.562;8.498;2023-11-22T06:08:46;4.97;;;2.75;;
23080;SDS011;72373;50.562;8.498;2023-11-22T06:11:11;4.00;;;2.90;;
23080;SDS011;72373;50.562;8.498;2023-11-22T06:13:38;6.53;;;3.30;;
23080;SDS011;72373;50.562;8.498;2023-11-22T06:16:04;6.20;;;2.75;;
23080;SDS011;72373;50.562;8.498;2023-11-22T06:18:29;6.18;;;3.03;;
23080;SDS011;72373;50.562;8.498;2023-11-22T06:20:55;9.60;;;3.65;;
23080;SDS011;72373;50.562;8.498;2023-11-22T06:23:22;6.20;;;3.45;;
23080;SDS011;72373;50.562;8.498;2023-11-22T06:25:47;4.88;;;2.40;;
23080;SDS011;72373;50.562;8.498;2023-11-22T06:28:13;3.97;;;2.88;;
23080;SDS011;72373;50.562;8.498;2023-11-22T06:30:39;6.63;;;3.15;;
23080;SDS011;72373;50.562;8.498;2023-11-22T06:33:04;4.85;;;2.90;;
23080;SDS011;72373;50.562;8.498;2023-11-22T06:35:30;6.25;;;2.50;;
23080;SDS011;72373;50.562;8.498;2023-11-22T06:37:55;4.65;;;3.00;;
23080;SDS011;72373;50.562;8.498;2023-11-22T06:40:21;8.32;;;3.30;;
23080;SDS011;72373;50.562;8.498;2023-11-22T06:42:46;6.00;;;2.85;;
23080;SDS011;72373;50.562;8.498;2023-11-22T06:45:12;5.03;;;2.83;;
23080;SDS011;72373;50.562;8.498;2023-11-22T06:47:38;5.75;;;2.75;;
23080;SDS011;72373;50.562;8.498;2023-11-22T06:50:04;4.32;;;2.67;;
23080;SDS011;72373;50.562;8.498;2023-11-22T06:52:34;6.22;;;3.08;;
23080;SDS011;72373;50.562;8.498;2023-11-22T06:55:03;5.63;;;2.65;;
23080;SDS011;72373;50.562;8.498;2023-11-22T06:57:29;5.85;;;2.88;;
23080;SDS011;72373;50.562;8.498;2023-11-22T06:59:57;6.60;;;3.15;;
23080;SDS011;72373;50.562;8.498;2023-11-22T07:02:23;7.97;;;3.58;;
23080;SDS011;72373;50.562;8.498;2023-11-22T07:04:49;6.60;;;3.55;;
23080;SDS011;72373;50.562;8.498;2023-11-22T07:07:15;5.90;;;3.03;;
23080;SDS011;72373;50.562;8.498;2023-11-22T07:09:44;8.93;;;4.53;;
23080;SDS011;72373;50.562;8.498;2023-11-22T07:12:09;17.00;;;5.28;;
23080;SDS011;72373;50.562;8.498;2023-11-22T07:14:35;9.52;;;5.05;;
23080;SDS011;72373;50.562;8.498;2023-11-22T07:17:02;11.02;;;5.57;;
23080;SDS011;72373;50.562;8.498;2023-11-22T07:19:28;7.65;;;4.05;;
23080;SDS011;72373;50.562;8.498;2023-11-22T07:21:54;8.55;;;3.80;;
23080;SDS011;72373;50.562;8.498;2023-11-22T07:24:20;8.75;;;3.60;;
23080;SDS011;72373;50.562;8.498;2023-11-22T07:26:46;10.23;;;4.13;;
23080;SDS011;72373;50.562;8.498;2023-11-22T07:29:12;12.93;;;4.25;;
23080;SDS011;72373;50.562;8.498;2023-11-22T07:31:38;9.27;;;4.07;;
23080;SDS011;72373;50.562;8.498;2023-11-22T07:34:04;6.53;;;3.55;;
23080;SDS011;72373;50.562;8.498;2023-11-22T07:36:31;8.13;;;3.78;;
23080;SDS011;72373;50.562;8.498;2023-11-22T07:38:56;10.90;;;3.50;;
23080;SDS011;72373;50.562;8.498;2023-11-22T07:41:22;5.35;;;3.25;;
23080;SDS011;72373;50.562;8.498;2023-11-22T07:43:48;7.28;;;3.42;;
23080;SDS011;72373;50.562;8.498;2023-11-22T07:46:14;5.93;;;3.40;;
23080;SDS011;72373;50.562;8.498;2023-11-22T07:48:42;6.50;;;3.17;;
23080;SDS011;72373;50.562;8.498;2023-11-22T07:51:08;6.60;;;3.20;;
23080;SDS011;72373;50.562;8.498;2023-11-22T07:53:33;6.38;;;3.20;;
23080;SDS011;72373;50.562;8.498;2023-11-22T07:56:00;5.97;;;2.90;;
23080;SDS011;72373;50.562;8.498;2023-11-22T07:58:32;4.82;;;3.10;;
23080;SDS011;72373;50.562;8.498;2023-11-22T08:00:58;5.65;;;3.30;;
23080;SDS011;72373;50.562;8.498;2023-11-22T08:03:24;5.47;;;3.08;;
23080;SDS011;72373;50.562;8.498;2023-11-22T08:05:51;5.30;;;3.05;;
23080;SDS011;72373;50.562;8.498;2023-11-22T08:08:19;6.25;;;2.75;;
23080;SDS011;72373;50.562;8.498;2023-11-22T08:10:45;5.63;;;3.03;;
23080;SDS011;72373;50.562;8.498;2023-11-22T08:13:12;6.78;;;3.00;;
23080;SDS011;72373;50.562;8.498;2023-11-22T08:15:38;5.68;;;3.08;;
23080;SDS011;72373;50.562;8.498;2023-11-22T08:18:04;4.85;;;3.08;;
23080;SDS011;72373;50.562;8.498;2023-11-22T08:20:30;5.75;;;3.47;;
23080;SDS011;72373;50.562;8.498;2023-11-22T08:22:56;5.68;;;3.03;;
23080;SDS011;72373;50.562;8.498;2023-11-22T08:25:22;6.00;;;3.28;;
23080;SDS011;72373;50.562;8.498;2023-11-22T08:27:47;6.38;;;3.30;;
23080;SDS011;72373;50.562;8.498;2023-11-22T08:30:13;5.25;;;2.92;;
23080;SDS011;72373;50.562;8.498;2023-11-22T08:32:41;6.80;;;3.22;;
23080;SDS011;72373;50.562;8.498;2023-11-22T08:35:13;5.97;;;3.45;;
23080;SDS011;72373;50.562;8.498;2023-11-22T08:37:40;6.82;;;3.38;;
23080;SDS011;72373;50.562;8.498;2023-11-22T08:40:10;10.32;;;3.80;;
23080;SDS011;72373;50.562;8.498;2023-11-22T08:42:45;9.25;;;3.15;;
23080;SDS011;72373;50.562;8.498;2023-11-22T08:45:11;8.90;;;3.38;;
23080;SDS011;72373;50.562;8.498;2023-11-22T08:47:37;6.70;;;3.22;;
23080;SDS011;72373;50.562;8.498;2023-11-22T08:50:04;6.03;;;3.22;;
23080;SDS011;72373;50.562;8.498;2023-11-22T08:52:31;5.57;;;3.08;;
23080;SDS011;72373;50.562;8.498;2023-11-22T08:54:57;8.68;;;3.22;;
23080;SDS011;72373;50.562;8.498;2023-11-22T08:57:22;6.03;;;2.92;;
23080;SDS011;72373;50.562;8.498;2023-11-22T08:59:47;5.68;;;2.78;;
23080;SDS011;72373;50.562;8.498;2023-11-22T09:02:14;6.18;;;2.95;;
23080;SDS011;72373;50.562;8.498;2023-11-22T09:04:40;4.43;;;2.70;;
23080;SDS011;72373;50.562;8.498;2023-11-22T09:07:06;4.50;;;2.92;;
23080;SDS011;72373;50.562;8.498;2023-11-22T09:09:32;4.53;;;2.78;;
23080;SDS011;72373;50.562;8.498;2023-11-22T09:11:59;5.07;;;2.85;;
23080;SDS011;72373;50.562;8.498;2023-11-22T09:14:25;3.85;;;2.50;;
23080;SDS011;72373;50.562;8.498;2023-11-22T09:16:51;3.72;;;2.70;;
23080;SDS011;72373;50.562;8.498;2023-11-22T09:19:23;4.97;;;2.97;;
23080;SDS011;72373;50.562;8.498;2023-11-22T09:21:50;3.90;;;2.42;;
23080;SDS011;72373;50.562;8.498;2023-11-22T09:24:16;6.40;;;2.70;;
23080;SDS011;72373;50.562;8.498;2023-11-22T09:26:41;5.88;;;2.60;;
23080;SDS011;72373;50.562;8.498;2023-11-22T09:29:07;5.10;;;2.85;;
23080;SDS011;72373;50.562;8.498;2023-11-22T09:31:34;3.80;;;2.80;;
23080;SDS011;72373;50.562;8.498;2023-11-22T09:34:00;4.68;;;2.70;;
23080;SDS011;72373;50.562;8.498;2023-11-22T09:36:28;4.75;;;2.80;;
23080;SDS011;72373;50.562;8.498;2023-11-22T09:38:57;5.50;;;2.80;;
23080;SDS011;72373;50.562;8.498;2023-11-22T09:41:23;4.60;;;2.70;;
23080;SDS011;72373;50.562;8.498;2023-11-22T09:43:50;4.90;;;3.10;;
23080;SDS011;72373;50.562;8.498;2023-11-22T09:46:15;4.65;;;3.05;;
23080;SDS011;72373;50.562;8.498;2023-11-22T09:48:44;6.13;;;2.72;;
23080;SDS011;72373;50.562;8.498;2023-11-22T09:51:20;4.93;;;2.92;;
23080;SDS011;72373;50.562;8.498;2023-11-22T09:56:25;4.75;;;2.55;;
23080;SDS011;72373;50.562;8.498;2023-11-22T09:58:52;4.93;;;2.70;;
23080;SDS011;72373;50.562;8.498;2023-11-22T10:01:24;7.75;;;2.67;;
23080;SDS011;72373;50.562;8.498;2023-11-22T10:03:53;4.75;;;2.70;;
23080;SDS011;72373;50.562;8.498;2023-11-22T10:06:19;3.80;;;2.70;;
23080;SDS011;72373;50.562;8.498;2023-11-22T10:08:45;5.45;;;3.10;;
23080;SDS011;72373;50.562;8.498;2023-11-22T10:11:14;6.47;;;2.88;;
23080;SDS011;72373;50.562;8.498;2023-11-22T10:13:42;4.60;;;2.65;;
23080;SDS011;72373;50.562;8.498;2023-11-22T10:16:15;4.15;;;3.60;;
23080;SDS011;72373;50.562;8.498;2023-11-22T10:18:42;5.15;;;2.92;;
23080;SDS011;72373;50.562;8.498;2023-11-22T10:21:18;4.35;;;2.33;;
23080;SDS011;72373;50.562;8.498;2023-11-22T10:23:45;4.38;;;2.60;;
23080;SDS011;72373;50.562;8.498;2023-11-22T10:26:12;5.75;;;3.10;;
23080;SDS011;72373;50.562;8.498;2023-11-22T10:28:41;4.57;;;2.75;;
23080;SDS011;72373;50.562;8.498;2023-11-22T10:31:08;6.72;;;3.53;;
23080;SDS011;72373;50.562;8.498;2023-11-22T10:33:33;8.55;;;4.03;;
23080;SDS011;72373;50.562;8.498;2023-11-22T10:36:04;7.38;;;3.78;;
23080;SDS011;72373;50.562;8.498;2023-11-22T10:38:32;6.88;;;3.20;;
23080;SDS011;72373;50.562;8.498;2023-11-22T10:40:59;6.60;;;2.95;;
23080;SDS011;72373;50.562;8.498;2023-11-22T10:43:26;4.50;;;3.15;;
23080;SDS011;72373;50.562;8.498;2023-11-22T10:45:55;5.07;;;2.92;;
23080;SDS011;72373;50.562;8.498;2023-11-22T10:48:22;5.97;;;2.88;;
23080;SDS011;72373;50.562;8.498;2023-11-22T10:50:50;8.07;;;2.78;;
23080;SDS011;72373;50.562;8.498;2023-11-22T10:53:24;4.22;;;2.88;;
23080;SDS011;72373;50.562;8.498;2023-11-22T10:56:15;4.60;;;2.80;;
23080;SDS011;72373;50.562;8.498;2023-11-22T10:58:52;4.68;;;3.00;;
23080;SDS011;72373;50.562;8.498;2023-11-22T11:01:21;3.45;;;2.58;;
23080;SDS011;72373;50.562;8.498;2023-11-22T11:03:54;4.40;;;2.72;;
23080;SDS011;72373;50.562;8.498;2023-11-22T11:06:23;8.40;;;3.22;;
23080;SDS011;72373;50.562;8.498;2023-11-22T11:08:54;5.65;;;2.80;;
23080;SDS011;72373;50.562;8.498;2023-11-22T11:11:22;5.18;;;2.65;;
23080;SDS011;72373;50.562;8.498;2023-11-22T11:13:48;4.85;;;2.97;;
23080;SDS011;72373;50.562;8.498;2023-11-22T11:16:15;4.05;;;2.72;;
23080;SDS011;72373;50.562;8.498;2023-11-22T11:18:41;5.82;;;3.17;;
23080;SDS011;72373;50.562;8.498;2023-11-22T11:21:07;5.47;;;2.72;;
23080;SDS011;72373;50.562;8.498;2023-11-22T11:23:36;5.00;;;3.00;;
23080;SDS011;72373;50.562;8.498;2023-11-22T11:28:48;3.40;;;2.63;;
23080;SDS011;72373;50.562;8.498;2023-11-22T11:31:15;5.13;;;2.78;;
23080;SDS011;72373;50.562;8.498;2023-11-22T11:34:05;4.57;;;2.95;;
23080;SDS011;72373;50.562;8.498;2023-11-22T11:36:31;6.25;;;3.38;;
23080;SDS011;72373;50.562;8.498;2023-11-22T11:39:01;4.82;;;2.97;;
23080;SDS011;72373;50.562;8.498;2023-11-22T11:41:33;4.13;;;2.60;;
23080;SDS011;72373;50.562;8.498;2023-11-22T11:44:04;3.60;;;2.40;;
23080;SDS011;72373;50.562;8.498;2023-11-22T11:46:34;4.07;;;2.20;;
23080;SDS011;72373;50.562;8.498;2023-11-22T11:48:59;3.55;;;2.80;;
23080;SDS011;72373;50.562;8.498;2023-11-22T11:51:26;5.05;;;2.58;;
23080;SDS011;72373;50.562;8.498;2023-11-22T11:53:53;4.15;;;2.47;;
23080;SDS011;72373;50.562;8.498;2023-11-22T11:56:19;4.43;;;2.75;;
23080;SDS011;72373;50.562;8.498;2023-11-22T11:58:46;3.55;;;2.75;;
23080;SDS011;72373;50.562;8.498;2023-11-22T12:01:14;4.68;;;3.15;;
23080;SDS011;72373;50.562;8.498;2023-11-22T12:03:45;3.75;;;2.65;;
23080;SDS011;72373;50.562;8.498;2023-11-22T12:06:18;4.90;;;2.97;;
23080;SDS011;72373;50.562;8.498;2023-11-22T12:08:44;4.70;;;2.58;;
23080;SDS011;72373;50.562;8.498;2023-11-22T12:11:12;3.70;;;2.90;;
23080;SDS011;72373;50.562;8.498;2023-11-22T12:13:38;5.38;;;3.10;;
23080;SDS011;72373;50.562;8.498;2023-11-22T12:16:06;4.97;;;3.20;;
23080;SDS011;72373;50.562;8.498;2023-11-22T12:18:42;3.72;;;2.70;;
23080;SDS011;72373;50.562;8.498;2023-11-22T12:21:12;5.35;;;2.60;;
23080;SDS011;72373;50.562;8.498;2023-11-22T12:23:39;4.53;;;2.90;;
23080;SDS011;72373;50.562;8.498;2023-11-22T12:26:09;5.13;;;3.28;;
23080;SDS011;72373;50.562;8.498;2023-11-22T12:28:39;4.05;;;2.85;;
23080;SDS011;72373;50.562;8.498;2023-11-22T12:31:09;5.50;;;3.10;;
23080;SDS011;72373;50.562;8.498;2023-11-22T12:33:35;5.13;;;2.92;;
23080;SDS011;72373;50.562;8.498;2023-11-22T12:36:02;4.15;;;2.83;;
23080;SDS011;72373;50.562;8.498;2023-11-22T12:38:29;5.63;;;3.25;;
23080;SDS011;72373;50.562;8.498;2023-11-22T12:40:57;3.63;;;3.00;;
23080;SDS011;72373;50.562;8.498;2023-11-22T12:43:23;3.97;;;2.70;;
23080;SDS011;72373;50.562;8.498;2023-11-22T12:46:01;4.82;;;3.28;;
23080;SDS011;72373;50.562;8.498;2023-11-22T12:48:41;9.82;;;3.22;;
23080;SDS011;72373;50.562;8.498;2023-11-22T12:51:16;5.10;;;3.38;;
23080;SDS011;72373;50.562;8.498;2023-11-22T12:53:42;5.13;;;3.03;;
23080;SDS011;72373;50.562;8.498;2023-11-22T12:56:11;6.68;;;2.90;;
23080;SDS011;72373;50.562;8.498;2023-11-22T12:58:36;5.40;;;3.20;;
23080;SDS011;72373;50.562;8.498;2023-11-22T13:01:02;4.15;;;2.90;;
23080;SDS011;72373;50.562;8.498;2023-11-22T13:03:28;6.65;;;2.80;;
23080;SDS011;72373;50.562;8.498;2023-11-22T13:05:53;3.97;;;2.97;;
23080;SDS011;72373;50.562;8.498;2023-11-22T13:08:19;3.90;;;2.58;;
23080;SDS011;72373;50.562;8.498;2023-11-22T13:10:47;11.27;;;3.22;;
23080;SDS011;72373;50.562;8.498;2023-11-22T13:13:18;3.65;;;2.60;;
23080;SDS011;72373;50.562;8.498;2023-11-22T13:15:48;6.07;;;2.88;;
23080;SDS011;72373;50.562;8.498;2023-11-22T13:18:16;4.78;;;2.72;;
23080;SDS011;72373;50.562;8.498;2023-11-22T13:20:42;3.75;;;2.90;;
23080;SDS011;72373;50.562;8.498;2023-11-22T13:23:09;6.72;;;2.42;;
23080;SDS011;72373;50.562;8.498;2023-11-22T13:25:35;3.92;;;2.50;;
23080;SDS011;72373;50.562;8.498;2023-11-22T13:28:01;5.85;;;2.72;;
23080;SDS011;72373;50.562;8.498;2023-11-22T13:30:27;4.35;;;2.75;;
23080;SDS011;72373;50.562;8.498;2023-11-22T13:32:53;4.80;;;3.10;;
23080;SDS011;72373;50.562;8.498;2023-11-22T13:35:26;5.82;;;3.28;;
23080;SDS011;72373;50.562;8.498;2023-11-22T13:37:56;12.57;;;4.05;;
23080;SDS011;72373;50.562;8.498;2023-11-22T13:40:23;10.88;;;3.28;;
23080;SDS011;72373;50.562;8.498;2023-11-22T13:42:50;7.72;;;3.33;;
23080;SDS011;72373;50.562;8.498;2023-11-22T13:45:19;6.10;;;3.00;;
23080;SDS011;72373;50.562;8.498;2023-11-22T13:47:49;5.25;;;3.25;;
23080;SDS011;72373;50.562;8.498;2023-11-22T13:50:17;4.95;;;3.25;;
23080;SDS011;72373;50.562;8.498;2023-11-22T13:52:47;5.03;;;3.13;;
23080;SDS011;72373;50.562;8.498;2023-11-22T13:55:13;5.70;;;3.45;;
23080;SDS011;72373;50.562;8.498;2023-11-22T13:57:41;10.63;;;3.85;;
23080;SDS011;72373;50.562;8.498;2023-11-22T14:00:07;5.13;;;3.53;;
23080;SDS011;72373;50.562;8.498;2023-11-22T14:02:54;4.05;;;3.28;;
23080;SDS011;72373;50.562;8.498;2023-11-22T14:05:22;5.90;;;3.17;;
23080;SDS011;72373;50.562;8.498;2023-11-22T14:07:48;6.13;;;3.28;;
23080;SDS011;72373;50.562;8.498;2023-11-22T14:10:14;8.57;;;3.33;;
23080;SDS011;72373;50.562;8.498;2023-11-22T14:12:41;4.85;;;3.08;;
23080;SDS011;72373;50.562;8.498;2023-11-22T14:15:08;6.25;;;3.38;;
23080;SDS011;72373;50.562;8.498;2023-11-22T14:17:35;4.68;;;3.03;;
23080;SDS011;72373;50.562;8.498;2023-11-22T14:20:03;5.57;;;3.17;;
23080;SDS011;72373;50.562;8.498;2023-11-22T14:22:30;5.78;;;2.83;;
23080;SDS011;72373;50.562;8.498;2023-11-22T14:24:56;5.40;;;2.83;;
23080;SDS011;72373;50.562;8.498;2023-11-22T14:27:22;4.40;;;2.80;;
23080;SDS011;72373;50.562;8.498;2023-11-22T14:29:48;4.75;;;3.05;;
23080;SDS011;72373;50.562;8.498;2023-11-22T14:32:18;4.80;;;2.75;;
23080;SDS011;72373;50.562;8.498;2023-11-22T14:34:44;5.35;;;2.67;;
23080;SDS011;72373;50.562;8.498;2023-11-22T14:37:10;5.60;;;3.00;;
23080;SDS011;72373;50.562;8.498;2023-11-22T14:39:36;5.20;;;3.13;;
23080;SDS011;72373;50.562;8.498;2023-11-22T14:42:02;4.18;;;2.88;;
23080;SDS011;72373;50.562;8.498;2023-11-22T14:44:28;5.15;;;2.90;;
23080;SDS011;72373;50.562;8.498;2023-11-22T14:46:53;8.70;;;3.22;;
23080;SDS011;72373;50.562;8.498;2023-11-22T14:49:19;5.57;;;2.78;;
23080;SDS011;72373;50.562;8.498;2023-11-22T14:51:46;11.38;;;3.55;;